createdAt,value
2018-09-09T00:00:20.265Z,19.80
2018-09-09T00:02:50.944Z,19.50
2018-09-09T00:05:20.404Z,19.50
2018-09-09T00:07:49.974Z,19.50
2018-09-09T00:10:19.793Z,19.50
2018-09-09T00:12:49.931Z,19.50
2018-09-09T00:15:20.685Z,19.60
2018-09-09T00:17:50.244Z,19.60
2018-09-09T00:20:20.714Z,19.50
2018-09-09T00:22:50.513Z,19.50
2018-09-09T00:25:20.557Z,19.20
2018-09-09T00:27:50.090Z,19.20
2018-09-09T00:30:19.934Z,19.20
2018-09-09T00:32:49.466Z,19.10
2018-09-09T00:35:19.068Z,19.10
2018-09-09T00:37:51.632Z,19.10
2018-09-09T00:40:21.270Z,19.20
2018-09-09T00:42:51.001Z,19.30
2018-09-09T00:45:20.549Z,19.30
2018-09-09T00:47:50.371Z,19.40
2018-09-09T00:50:27.408Z,19.50
2018-09-09T00:53:02.217Z,19.50
2018-09-09T00:55:31.707Z,19.40
2018-09-09T00:58:02.244Z,19.50
2018-09-09T01:00:37.090Z,19.60
2018-09-09T01:03:07.794Z,19.50
2018-09-09T01:05:38.004Z,19.50
2018-09-09T01:08:08.653Z,19.60
2018-09-09T01:10:38.188Z,19.60
2018-09-09T01:13:09.051Z,19.60
2018-09-09T01:15:38.701Z,19.60
2018-09-09T01:18:09.138Z,19.60
2018-09-09T01:20:39.320Z,19.60
2018-09-09T01:23:11.294Z,19.50
2018-09-09T01:25:42.567Z,19.50
2018-09-09T01:28:12.336Z,19.40
2018-09-09T01:30:42.416Z,19.40
2018-09-09T01:33:11.996Z,19.40
2018-09-09T01:35:43.632Z,19.40
2018-09-09T01:38:14.190Z,19.40
2018-09-09T01:40:45.027Z,19.30
2018-09-09T01:43:15.349Z,19.30
2018-09-09T01:45:45.024Z,19.30
2018-09-09T01:48:15.996Z,19.40
2018-09-09T01:50:46.513Z,19.50
2018-09-09T01:53:16.209Z,19.60
2018-09-09T01:55:47.523Z,19.60
2018-09-09T01:58:17.814Z,19.50
2018-09-09T02:00:47.361Z,19.50
2018-09-09T02:03:17.922Z,19.60
2018-09-09T02:05:48.403Z,19.60
2018-09-09T02:08:19.391Z,19.60
2018-09-09T02:10:50.299Z,19.70
2018-09-09T02:13:20.020Z,19.70
2018-09-09T02:15:50.105Z,19.70
2018-09-09T02:18:20.818Z,19.70
2018-09-09T02:20:55.818Z,19.70
2018-09-09T02:23:26.254Z,19.70
2018-09-09T02:25:56.862Z,19.80
2018-09-09T02:28:27.661Z,19.80
2018-09-09T02:31:02.256Z,19.80
2018-09-09T02:33:32.426Z,19.70
2018-09-09T02:36:02.712Z,19.70
2018-09-09T02:38:32.487Z,19.70
2018-09-09T02:41:05.234Z,19.70
2018-09-09T02:43:34.860Z,19.80
2018-09-09T02:46:04.420Z,19.80
2018-09-09T02:48:35.491Z,19.80
2018-09-09T02:51:05.872Z,19.70
2018-09-09T02:53:36.123Z,19.60
2018-09-09T02:56:09.937Z,19.60
2018-09-09T02:58:40.040Z,19.60
2018-09-09T03:01:09.764Z,19.50
2018-09-09T03:03:39.316Z,19.30
2018-09-09T03:06:08.991Z,19.30
2018-09-09T03:08:39.437Z,19.40
2018-09-09T03:11:14.839Z,19.40
2018-09-09T03:13:49.241Z,19.50
2018-09-09T03:16:20.551Z,19.50
2018-09-09T03:18:51.530Z,19.50
2018-09-09T03:21:21.249Z,19.60
2018-09-09T03:23:51.066Z,19.60
2018-09-09T03:26:21.139Z,19.70
2018-09-09T03:28:52.005Z,19.60
2018-09-09T03:31:26.351Z,19.70
2018-09-09T03:33:57.044Z,19.70
2018-09-09T03:36:27.329Z,19.60
2018-09-09T03:38:57.480Z,19.70
2018-09-09T03:41:27.830Z,19.60
2018-09-09T03:43:57.998Z,19.60
2018-09-09T03:46:27.746Z,19.50
2018-09-09T03:48:58.821Z,19.20
2018-09-09T03:51:29.112Z,19.10
2018-09-09T03:53:59.184Z,19.00
2018-09-09T03:56:28.856Z,19.00
2018-09-09T03:58:58.996Z,19.00
2018-09-09T04:01:29.255Z,19.10
2018-09-09T04:03:59.321Z,19.20
2018-09-09T04:06:30.169Z,19.20
2018-09-09T04:08:59.868Z,19.10
2018-09-09T04:11:36.279Z,18.90
2018-09-09T04:14:06.229Z,18.80
2018-09-09T04:16:38.036Z,18.90
2018-09-09T04:19:08.314Z,19.00
2018-09-09T04:21:42.796Z,19.10
2018-09-09T04:24:12.980Z,19.10
2018-09-09T04:26:44.033Z,18.90
2018-09-09T04:29:14.955Z,18.90
2018-09-09T04:31:55.221Z,18.70
2018-09-09T04:34:25.951Z,18.70
2018-09-09T04:37:00.965Z,18.80
2018-09-09T04:39:35.579Z,18.90
2018-09-09T04:42:05.931Z,19.00
2018-09-09T04:44:40.005Z,19.00
2018-09-09T04:47:10.530Z,19.00
2018-09-09T04:49:41.031Z,19.00
2018-09-09T04:52:11.097Z,19.00
2018-09-09T04:54:41.711Z,19.00
2018-09-09T04:57:11.949Z,19.00
2018-09-09T04:59:43.029Z,19.00
2018-09-09T05:02:12.892Z,19.00
2018-09-09T05:04:46.679Z,19.10
2018-09-09T05:07:18.785Z,19.10
2018-09-09T05:09:49.001Z,19.00
2018-09-09T05:12:18.653Z,19.10
2018-09-09T05:14:49.215Z,19.00
2018-09-09T05:17:20.394Z,18.70
2018-09-09T05:19:50.204Z,18.70
2018-09-09T05:22:20.019Z,18.80
2018-09-09T05:24:50.342Z,18.90
2018-09-09T05:27:19.928Z,19.10
2018-09-09T05:29:50.982Z,19.10
2018-09-09T05:32:20.617Z,19.30
2018-09-09T05:34:51.535Z,19.40
2018-09-09T05:37:21.722Z,19.40
2018-09-09T05:39:53.183Z,19.50
2018-09-09T05:42:23.050Z,19.50
2018-09-09T05:44:53.318Z,19.50
2018-09-09T05:47:26.313Z,19.40
2018-09-09T05:49:56.763Z,19.40
2018-09-09T05:52:27.058Z,19.50
2018-09-09T05:54:57.376Z,19.50
2018-09-09T05:57:27.560Z,19.60
2018-09-09T05:59:57.746Z,19.70
2018-09-09T06:02:29.518Z,19.80
2018-09-09T06:05:00.092Z,19.90
2018-09-09T06:07:30.105Z,19.90
2018-09-09T06:09:59.657Z,19.90
2018-09-09T06:12:29.625Z,19.80
2018-09-09T06:14:59.356Z,19.70
2018-09-09T06:17:29.510Z,19.90
2018-09-09T06:19:59.527Z,20.00
2018-09-09T06:22:30.840Z,20.20
2018-09-09T06:25:02.747Z,20.40
2018-09-09T06:27:38.217Z,20.40
2018-09-09T06:30:07.988Z,20.50
2018-09-09T06:32:47.519Z,20.40
2018-09-09T06:35:17.875Z,20.30
2018-09-09T06:37:53.594Z,20.30
2018-09-09T06:40:26.085Z,20.40
2018-09-09T06:42:57.771Z,20.50
2018-09-09T06:45:28.214Z,20.50
2018-09-09T06:47:58.057Z,20.50
2018-09-09T06:50:27.913Z,20.50
2018-09-09T06:52:58.681Z,20.50
2018-09-09T06:55:28.256Z,20.60
2018-09-09T06:57:58.314Z,20.60
2018-09-09T07:00:28.857Z,20.60
2018-09-09T07:02:59.513Z,20.60
2018-09-09T07:05:29.114Z,20.60
2018-09-09T07:07:59.142Z,20.60
2018-09-09T07:10:29.251Z,20.70
2018-09-09T07:12:59.608Z,20.70
2018-09-09T07:15:30.140Z,20.80
2018-09-09T07:17:59.611Z,20.80
2018-09-09T07:20:30.785Z,20.90
2018-09-09T07:23:01.030Z,20.90
2018-09-09T07:25:31.024Z,21.00
2018-09-09T07:28:01.177Z,21.00
2018-09-09T07:30:31.273Z,21.10
2018-09-09T07:33:01.988Z,21.10
2018-09-09T07:35:32.917Z,21.00
2018-09-09T07:38:03.133Z,21.00
2018-09-09T07:40:33.200Z,21.00
2018-09-09T07:43:03.526Z,20.90
2018-09-09T07:45:34.194Z,20.80
2018-09-09T07:48:06.423Z,20.90
2018-09-09T07:50:36.272Z,20.90
2018-09-09T07:53:07.101Z,21.00
2018-09-09T07:55:37.086Z,21.00
2018-09-09T07:58:07.462Z,20.90
2018-09-09T08:00:37.185Z,20.90
2018-09-09T08:03:07.775Z,20.80
2018-09-09T08:05:39.205Z,20.80
2018-09-09T08:08:09.122Z,20.90
2018-09-09T08:10:39.390Z,21.00
2018-09-09T08:13:09.822Z,20.80
2018-09-09T08:15:40.179Z,20.60
2018-09-09T08:18:13.233Z,20.70
2018-09-09T08:20:48.328Z,20.80
2018-09-09T08:23:18.088Z,20.90
2018-09-09T08:25:48.892Z,20.90
2018-09-09T08:28:18.882Z,20.90
2018-09-09T08:30:52.986Z,21.00
2018-09-09T08:33:23.054Z,21.00
2018-09-09T08:35:58.082Z,21.10
2018-09-09T08:38:28.025Z,21.10
2018-09-09T08:40:59.054Z,21.20
2018-09-09T08:43:29.383Z,21.30
2018-09-09T08:46:00.149Z,21.30
2018-09-09T08:48:30.007Z,21.50
2018-09-09T08:51:00.172Z,21.70
2018-09-09T08:53:30.090Z,21.60
2018-09-09T08:55:59.538Z,21.70
2018-09-09T08:58:30.620Z,21.80
2018-09-09T09:01:00.590Z,21.80
2018-09-09T09:03:30.513Z,21.90
2018-09-09T09:06:00.280Z,22.00
2018-09-09T09:08:31.461Z,22.10
2018-09-09T09:11:02.048Z,22.10
2018-09-09T09:13:32.363Z,22.00
2018-09-09T09:16:06.447Z,22.10
2018-09-09T09:18:36.045Z,22.10
2018-09-09T09:21:07.620Z,22.10
2018-09-09T09:23:37.133Z,22.00
2018-09-09T09:26:08.202Z,22.00
2018-09-09T09:28:37.977Z,21.90
2018-09-09T09:31:11.832Z,21.90
2018-09-09T09:33:43.019Z,22.00
2018-09-09T09:36:13.240Z,22.20
2018-09-09T09:38:43.226Z,22.20
2018-09-09T09:41:13.020Z,22.40
2018-09-09T09:43:47.106Z,22.50
2018-09-09T09:46:17.182Z,22.70
2018-09-09T09:48:47.615Z,22.80
2018-09-09T09:51:17.733Z,22.80
2018-09-09T09:53:47.781Z,22.90
2018-09-09T09:56:17.781Z,23.00
2018-09-09T09:58:47.938Z,23.10
2018-09-09T10:01:18.231Z,23.30
2018-09-09T10:03:49.340Z,23.40
2018-09-09T10:06:19.976Z,23.40
2018-09-09T10:08:49.862Z,23.50
2018-09-09T10:11:20.063Z,23.70
2018-09-09T10:13:49.866Z,23.80
2018-09-09T10:16:19.760Z,23.80
2018-09-09T10:18:49.833Z,23.90
2018-09-09T10:21:20.257Z,24.00
2018-09-09T10:23:49.771Z,24.10
2018-09-09T10:26:20.466Z,23.80
2018-09-09T10:28:50.258Z,23.80
2018-09-09T10:31:20.017Z,23.70
2018-09-09T10:33:50.264Z,23.80
2018-09-09T10:36:20.606Z,23.80
2018-09-09T10:38:50.794Z,23.90
2018-09-09T10:41:21.253Z,24.00
2018-09-09T10:43:50.865Z,24.10
2018-09-09T10:46:20.709Z,24.10
2018-09-09T10:48:51.387Z,24.20
2018-09-09T10:51:23.351Z,24.00
2018-09-09T10:53:54.271Z,23.90
2018-09-09T10:56:24.329Z,23.70
2018-09-09T10:58:55.572Z,23.80
2018-09-09T11:01:25.328Z,23.70
2018-09-09T11:03:56.114Z,23.70
2018-09-09T11:06:26.875Z,23.80
2018-09-09T11:08:58.059Z,23.90
2018-09-09T11:11:29.124Z,24.00
2018-09-09T11:13:59.088Z,24.20
2018-09-09T11:16:30.756Z,24.10
2018-09-09T11:19:00.577Z,24.10
2018-09-09T11:21:33.843Z,24.30
2018-09-09T11:24:04.016Z,24.30
2018-09-09T11:26:35.440Z,24.30
2018-09-09T11:29:05.740Z,24.40
2018-09-09T11:31:36.999Z,24.60
2018-09-09T11:34:07.512Z,24.80
2018-09-09T11:36:37.233Z,24.80
2018-09-09T11:39:10.290Z,24.90
2018-09-09T11:41:46.230Z,24.90
2018-09-09T11:44:16.289Z,24.70
2018-09-09T11:46:51.449Z,24.70
2018-09-09T11:49:22.263Z,24.70
2018-09-09T11:51:53.017Z,24.80
2018-09-09T11:54:23.651Z,24.90
2018-09-09T11:56:53.206Z,25.00
2018-09-09T11:59:23.462Z,25.10
2018-09-09T12:01:53.673Z,25.30
2018-09-09T12:04:23.191Z,25.60
2018-09-09T12:06:52.855Z,25.50
2018-09-09T12:09:22.580Z,25.60
2018-09-09T12:11:53.243Z,25.60
2018-09-09T12:14:22.693Z,25.80
2018-09-09T12:16:52.987Z,26.00
2018-09-09T12:19:22.557Z,26.10
2018-09-09T12:21:57.600Z,26.20
2018-09-09T12:24:27.185Z,26.30
2018-09-09T12:26:57.748Z,26.40
2018-09-09T12:29:29.964Z,26.30
2018-09-09T12:32:01.166Z,25.90
2018-09-09T12:34:31.065Z,25.90
2018-09-09T12:37:02.790Z,25.90
2018-09-09T12:39:32.774Z,25.90
2018-09-09T12:42:03.129Z,25.80
2018-09-09T12:44:38.143Z,25.60
2018-09-09T12:47:15.057Z,25.60
2018-09-09T12:49:46.278Z,25.60
2018-09-09T12:52:26.350Z,25.80
2018-09-09T12:54:56.160Z,25.90
2018-09-09T12:57:25.755Z,25.90
2018-09-09T12:59:56.038Z,25.90
2018-09-09T13:02:25.681Z,26.10
2018-09-09T13:04:57.092Z,26.10
2018-09-09T13:07:26.754Z,26.30
2018-09-09T13:09:56.912Z,26.40
2018-09-09T13:13:30.646Z,26.30
2018-09-09T13:16:08.625Z,26.30
2018-09-09T13:18:38.898Z,26.20
2018-09-09T13:21:13.781Z,26.40
2018-09-09T13:23:44.472Z,26.50
2018-09-09T13:26:14.649Z,26.50
2018-09-09T13:28:46.351Z,26.50
2018-09-09T13:31:17.201Z,26.60
2018-09-09T13:33:47.605Z,26.60
2018-09-09T13:36:17.393Z,26.30
2018-09-09T13:38:49.627Z,26.20
2018-09-09T13:41:19.697Z,26.20
2018-09-09T13:43:49.704Z,26.40
2018-09-09T13:46:20.588Z,26.60
2018-09-09T13:48:50.328Z,26.30
2018-09-09T13:51:20.608Z,26.10
2018-09-09T13:53:51.497Z,26.10
2018-09-09T13:56:21.708Z,26.20
2018-09-09T13:58:51.822Z,26.30
2018-09-09T14:01:21.571Z,26.30
2018-09-09T14:03:52.355Z,26.20
2018-09-09T14:06:22.939Z,26.00
2018-09-09T14:08:52.396Z,26.10
2018-09-09T14:11:22.090Z,26.00
2018-09-09T14:13:53.947Z,25.90
2018-09-09T14:16:23.432Z,25.70
2018-09-09T14:18:53.502Z,25.70
2018-09-09T14:21:23.163Z,25.90
2018-09-09T14:23:54.679Z,26.00
2018-09-09T14:26:24.469Z,25.90
2018-09-09T14:28:55.146Z,25.90
2018-09-09T14:31:26.184Z,25.90
2018-09-09T14:33:55.719Z,25.90
2018-09-09T14:36:26.327Z,25.90
2018-09-09T14:38:56.536Z,25.90
2018-09-09T14:41:26.261Z,25.70
2018-09-09T14:43:56.263Z,25.80
2018-09-09T14:46:26.545Z,25.70
2018-09-09T14:48:56.132Z,25.80
2018-09-09T14:51:26.963Z,25.90
2018-09-09T14:53:56.892Z,25.90
2018-09-09T14:56:27.393Z,25.90
2018-09-09T14:58:58.953Z,25.90
2018-09-09T15:01:29.008Z,25.90
2018-09-09T15:04:00.149Z,26.10
2018-09-09T15:06:31.257Z,26.20
2018-09-09T15:09:01.650Z,26.10
2018-09-09T15:11:32.814Z,26.00
2018-09-09T15:14:02.441Z,25.90
2018-09-09T15:16:32.094Z,25.90
2018-09-09T15:19:02.367Z,25.80
2018-09-09T15:21:36.264Z,25.90
2018-09-09T15:24:06.672Z,26.00
2018-09-09T15:26:37.373Z,26.10
2018-09-09T15:29:07.218Z,26.30
2018-09-09T15:31:37.405Z,26.40
2018-09-09T15:34:07.091Z,26.30
2018-09-09T15:36:41.307Z,26.40
2018-09-09T15:39:14.514Z,26.10
2018-09-09T15:41:45.926Z,26.20
2018-09-09T15:44:20.347Z,26.20
2018-09-09T15:46:54.547Z,26.30
2018-09-09T15:49:26.456Z,26.50
2018-09-09T15:51:56.950Z,26.60
2018-09-09T15:54:26.678Z,26.60
2018-09-09T15:56:57.803Z,26.70
2018-09-09T15:59:28.030Z,26.70
2018-09-09T16:01:59.683Z,26.50
2018-09-09T16:04:30.370Z,26.50
2018-09-09T16:07:02.143Z,26.50
2018-09-09T16:09:32.928Z,26.40
2018-09-09T16:12:04.552Z,26.40
2018-09-09T16:14:34.652Z,26.30
2018-09-09T16:17:06.082Z,26.30
2018-09-09T16:19:43.217Z,26.30
2018-09-09T16:22:12.969Z,26.00
2018-09-09T16:24:43.083Z,26.00
2018-09-09T16:27:12.550Z,25.90
2018-09-09T16:29:43.785Z,25.90
2018-09-09T16:32:13.548Z,25.90
2018-09-09T16:34:43.211Z,25.70
2018-09-09T16:37:13.314Z,25.50
2018-09-09T16:39:43.831Z,25.30
2018-09-09T16:42:13.413Z,25.40
2018-09-09T16:44:45.281Z,25.30
2018-09-09T16:47:14.997Z,25.30
2018-09-09T16:49:45.984Z,25.30
2018-09-09T16:52:16.838Z,25.20
2018-09-09T16:54:47.302Z,25.30
2018-09-09T16:57:16.971Z,25.30
2018-09-09T16:59:47.826Z,25.20
2018-09-09T17:02:18.070Z,25.20
2018-09-09T17:04:48.187Z,25.20
2018-09-09T17:07:18.841Z,25.20
2018-09-09T17:09:54.502Z,25.20
2018-09-09T17:12:26.058Z,25.20
2018-09-09T17:14:57.068Z,25.30
2018-09-09T17:17:28.105Z,25.30
2018-09-09T17:19:58.597Z,25.20
2018-09-09T17:22:28.107Z,25.20
2018-09-09T17:24:57.830Z,25.20
2018-09-09T17:27:27.889Z,25.20
2018-09-09T17:29:58.357Z,25.20
2018-09-09T17:32:28.118Z,25.20
2018-09-09T17:35:00.570Z,25.20
2018-09-09T17:37:30.339Z,25.20
2018-09-09T17:40:04.785Z,25.20
2018-09-09T17:42:36.986Z,25.10
2018-09-09T17:45:08.602Z,25.10
2018-09-09T17:47:38.720Z,25.10
2018-09-09T17:50:10.497Z,25.10
2018-09-09T17:52:42.706Z,25.00
2018-09-09T17:55:12.203Z,25.00
2018-09-09T17:57:43.703Z,25.00
2018-09-09T18:00:14.664Z,24.90
2018-09-09T18:02:45.210Z,24.90
2018-09-09T18:05:17.037Z,24.80
2018-09-09T18:07:48.598Z,24.80
2018-09-09T18:10:22.799Z,24.80
2018-09-09T18:12:53.518Z,24.80
2018-09-09T18:15:24.120Z,24.70
2018-09-09T18:17:54.345Z,24.70
2018-09-09T18:20:25.381Z,24.70
2018-09-09T18:22:55.191Z,24.60
2018-09-09T18:25:26.641Z,24.60
2018-09-09T18:27:57.163Z,24.50
2018-09-09T18:30:28.203Z,24.50
2018-09-09T18:32:58.745Z,24.50
2018-09-09T18:35:33.182Z,24.40
2018-09-09T18:38:04.153Z,24.40
2018-09-09T18:40:34.935Z,24.30
2018-09-09T18:43:05.569Z,24.30
2018-09-09T18:45:36.515Z,24.30
2018-09-09T18:48:07.353Z,24.30
2018-09-09T18:50:39.071Z,24.20
2018-09-09T18:53:10.221Z,24.20
2018-09-09T18:55:40.976Z,24.20
2018-09-09T18:58:12.845Z,24.10
2018-09-09T19:00:42.996Z,24.10
2018-09-09T19:03:13.989Z,24.10
2018-09-09T19:05:46.595Z,24.00
2018-09-09T19:08:17.027Z,24.00
2018-09-09T19:10:47.954Z,24.00
2018-09-09T19:13:17.725Z,23.90
2018-09-09T19:15:49.315Z,23.70
2018-09-09T19:18:19.740Z,23.60
2018-09-09T19:20:53.361Z,23.60
2018-09-09T19:23:23.798Z,23.50
2018-09-09T19:25:53.404Z,23.40
2018-09-09T19:28:23.015Z,23.00
2018-09-09T19:30:53.814Z,22.80
2018-09-09T19:33:24.864Z,22.70
2018-09-09T19:35:55.333Z,22.60
2018-09-09T19:38:27.227Z,22.70
2018-09-09T19:40:58.101Z,22.60
2018-09-09T19:43:29.950Z,22.60
2018-09-09T19:45:59.644Z,22.50
2018-09-09T19:48:32.281Z,22.40
2018-09-09T19:51:02.957Z,22.20
2018-09-09T19:53:33.686Z,22.20
2018-09-09T19:56:03.878Z,22.10
2018-09-09T19:58:34.180Z,22.10
2018-09-09T20:01:04.796Z,22.10
2018-09-09T20:03:36.420Z,22.00
2018-09-09T20:06:06.200Z,22.00
2018-09-09T20:08:35.661Z,21.90
2018-09-09T20:11:06.073Z,21.70
2018-09-09T20:13:36.521Z,21.70
2018-09-09T20:16:07.577Z,21.70
2018-09-09T20:18:37.579Z,21.60
2018-09-09T20:21:09.220Z,21.60
2018-09-09T20:23:38.985Z,21.60
2018-09-09T20:26:10.575Z,21.50
2018-09-09T20:28:41.437Z,21.40
2018-09-09T20:31:12.268Z,21.40
2018-09-09T20:33:42.830Z,21.40
2018-09-09T20:36:12.962Z,21.50
2018-09-09T20:38:47.283Z,21.40
2018-09-09T20:41:17.440Z,21.40
2018-09-09T20:43:48.796Z,21.30
2018-09-09T20:46:23.090Z,21.30
2018-09-09T20:48:52.661Z,21.40
2018-09-09T20:51:23.606Z,21.30
2018-09-09T20:53:54.289Z,21.30
2018-09-09T20:56:24.975Z,21.30
2018-09-09T20:58:55.908Z,21.30
2018-09-09T21:01:27.285Z,21.40
2018-09-09T21:03:56.799Z,21.40
2018-09-09T21:06:28.017Z,21.30
2018-09-09T21:08:57.718Z,21.40
2018-09-09T21:11:28.688Z,21.40
2018-09-09T21:13:58.819Z,21.50
2018-09-09T21:16:32.930Z,21.40
2018-09-09T21:19:04.154Z,21.30
2018-09-09T21:21:34.658Z,21.30
2018-09-09T21:24:05.696Z,21.10
2018-09-09T21:26:37.520Z,20.90
2018-09-09T21:29:08.985Z,20.90
2018-09-09T21:31:39.277Z,20.80
2018-09-09T21:34:08.917Z,20.80
2018-09-09T21:36:39.785Z,20.80
2018-09-09T21:39:11.298Z,21.00
2018-09-09T21:41:41.326Z,21.00
2018-09-09T21:44:12.422Z,21.00
2018-09-09T21:46:43.900Z,21.10
2018-09-09T21:49:14.569Z,21.10
2018-09-09T21:51:50.001Z,21.00
2018-09-09T21:54:20.657Z,21.00
2018-09-09T21:56:50.412Z,21.00
2018-09-09T21:59:20.079Z,21.00
2018-09-09T22:01:55.376Z,21.00
2018-09-09T22:04:24.942Z,20.90
2018-09-09T22:06:54.693Z,20.80
2018-09-09T22:09:26.409Z,20.80
2018-09-09T22:11:56.305Z,20.70
2018-09-09T22:14:27.035Z,20.70
2018-09-09T22:16:57.130Z,20.50
2018-09-09T22:19:27.378Z,20.50
2018-09-09T22:21:57.579Z,20.50
2018-09-09T22:24:29.531Z,20.40
2018-09-09T22:26:58.964Z,20.40
2018-09-09T22:29:28.861Z,20.50
2018-09-09T22:32:04.579Z,20.50
2018-09-09T22:34:34.258Z,20.50
2018-09-09T22:37:03.976Z,20.60
2018-09-09T22:39:34.487Z,20.60
2018-09-09T22:42:04.218Z,20.50
2018-09-09T22:44:34.339Z,20.50
2018-09-09T22:47:05.741Z,20.40
2018-09-09T22:49:36.411Z,20.40
2018-09-09T22:52:06.954Z,20.40
2018-09-09T22:54:40.581Z,20.40
2018-09-09T22:57:11.418Z,20.30
2018-09-09T22:59:42.223Z,20.20
2018-09-09T23:02:13.230Z,20.10
2018-09-09T23:04:43.880Z,20.20
2018-09-09T23:07:14.789Z,20.10
2018-09-09T23:09:45.668Z,20.10
2018-09-09T23:12:15.893Z,20.00
2018-09-09T23:14:51.214Z,20.10
2018-09-09T23:17:20.732Z,20.20
2018-09-09T23:19:50.855Z,20.30
2018-09-09T23:22:22.010Z,20.40
2018-09-09T23:24:51.773Z,20.30
2018-09-09T23:27:23.456Z,20.10
2018-09-09T23:29:54.836Z,20.00
2018-09-09T23:32:25.867Z,19.90
2018-09-09T23:34:56.356Z,20.00
2018-09-09T23:37:26.039Z,20.00
2018-09-09T23:39:56.210Z,20.10
2018-09-09T23:42:26.238Z,20.10
2018-09-09T23:44:56.232Z,20.20
2018-09-09T23:47:27.081Z,20.40
2018-09-09T23:49:58.177Z,20.50
2018-09-09T23:52:29.238Z,20.60
2018-09-09T23:55:00.035Z,20.60
2018-09-09T23:57:29.953Z,20.60
